createdAt,value
2023-05-03T00:00:21.174Z,21.06
2023-05-03T00:02:51.173Z,21.05
2023-05-03T00:05:19.819Z,21.04
2023-05-03T00:07:48.323Z,21.03
2023-05-03T00:10:16.769Z,21.03
2023-05-03T00:12:45.545Z,21.01
2023-05-03T00:15:13.904Z,21.02
2023-05-03T00:17:42.416Z,21.01
2023-05-03T00:20:13.079Z,21.01
2023-05-03T00:22:41.564Z,21.00
2023-05-03T00:25:10.895Z,21.00
2023-05-03T00:27:39.391Z,20.99
2023-05-03T00:30:09.615Z,20.99
2023-05-03T00:32:38.234Z,20.99
2023-05-03T00:35:07.499Z,20.98
2023-05-03T00:37:38.253Z,20.98
2023-05-03T00:40:08.683Z,20.96
2023-05-03T00:42:37.250Z,20.96
2023-05-03T00:45:06.811Z,20.96
2023-05-03T00:47:35.687Z,20.96
2023-05-03T00:50:06.179Z,20.95
2023-05-03T00:52:37.074Z,20.95
2023-05-03T00:55:06.652Z,20.95
2023-05-03T00:57:35.117Z,20.94
2023-05-03T01:00:03.861Z,20.94
2023-05-03T01:02:32.762Z,20.94
2023-05-03T01:05:02.499Z,20.92
2023-05-03T01:07:41.622Z,20.93
2023-05-03T01:10:22.526Z,20.92
2023-05-03T01:13:01.482Z,20.93
2023-05-03T01:15:44.011Z,20.92
2023-05-03T01:18:15.945Z,20.92
2023-05-03T01:20:47.936Z,20.91
2023-05-03T01:23:30.041Z,20.91
2023-05-03T01:25:59.901Z,20.91
2023-05-03T01:28:28.448Z,20.91
2023-05-03T01:30:59.853Z,20.90
2023-05-03T01:33:46.319Z,20.90
2023-05-03T01:36:24.172Z,20.89
2023-05-03T01:38:52.641Z,20.88
2023-05-03T01:41:25.545Z,20.88
2023-05-03T01:43:56.051Z,20.88
2023-05-03T01:46:24.763Z,20.89
2023-05-03T01:48:53.225Z,20.88
2023-05-03T01:51:21.723Z,20.87
2023-05-03T01:53:51.333Z,20.87
2023-05-03T01:56:19.771Z,20.88
2023-05-03T01:58:49.603Z,20.86
2023-05-03T02:01:18.203Z,20.86
2023-05-03T02:03:46.733Z,20.85
2023-05-03T02:06:15.231Z,20.85
2023-05-03T02:08:43.754Z,20.85
2023-05-03T02:11:12.712Z,20.84
2023-05-03T02:13:41.241Z,20.84
2023-05-03T02:16:11.440Z,20.84
2023-05-03T02:18:39.848Z,20.84
2023-05-03T02:21:10.121Z,20.84
2023-05-03T02:23:38.635Z,20.83
2023-05-03T02:26:08.009Z,20.83
2023-05-03T02:28:36.631Z,20.82
2023-05-03T02:31:06.436Z,20.83
2023-05-03T02:33:36.488Z,20.82
2023-05-03T02:36:05.363Z,20.81
2023-05-03T02:38:34.039Z,20.83
2023-05-03T02:41:02.519Z,20.81
2023-05-03T02:43:32.315Z,20.81
2023-05-03T02:46:00.913Z,20.81
2023-05-03T02:48:29.352Z,20.81
2023-05-03T02:50:59.253Z,20.80
2023-05-03T02:53:27.702Z,20.80
2023-05-03T02:56:00.237Z,20.80
2023-05-03T02:58:28.813Z,20.79
2023-05-03T03:00:57.828Z,20.79
2023-05-03T03:03:31.780Z,20.77
2023-05-03T03:06:02.033Z,20.78
2023-05-03T03:08:30.712Z,20.77
2023-05-03T03:11:03.566Z,20.77
2023-05-03T03:13:32.237Z,20.77
2023-05-03T03:16:01.693Z,20.77
2023-05-03T03:18:30.220Z,20.78
2023-05-03T03:20:58.733Z,20.77
2023-05-03T03:23:28.696Z,20.75
2023-05-03T03:25:57.200Z,20.77
2023-05-03T03:28:26.692Z,20.76
2023-05-03T03:31:02.560Z,20.77
2023-05-03T03:33:32.171Z,20.77
2023-05-03T03:36:10.103Z,20.77
2023-05-03T03:38:43.013Z,20.76
2023-05-03T03:41:13.076Z,20.76
2023-05-03T03:43:41.580Z,20.76
2023-05-03T03:46:15.866Z,20.76
2023-05-03T03:48:44.623Z,20.76
2023-05-03T03:51:13.377Z,20.75
2023-05-03T03:53:48.637Z,20.75
2023-05-03T03:56:17.769Z,20.75
2023-05-03T03:58:47.298Z,20.74
2023-05-03T04:01:15.942Z,20.74
2023-05-03T04:03:47.593Z,20.75
2023-05-03T04:06:16.603Z,20.75
2023-05-03T04:08:45.313Z,20.74
2023-05-03T04:11:17.174Z,20.74
2023-05-03T04:13:51.673Z,20.74
2023-05-03T04:16:20.500Z,20.73
2023-05-03T04:18:49.122Z,20.73
2023-05-03T04:21:18.478Z,20.73
2023-05-03T04:23:47.065Z,20.73
2023-05-03T04:26:30.538Z,20.73
2023-05-03T04:29:03.983Z,20.74
2023-05-03T04:31:32.954Z,20.73
2023-05-03T04:34:01.687Z,20.72
2023-05-03T04:36:31.349Z,20.73
2023-05-03T04:39:00.610Z,20.71
2023-05-03T04:41:30.513Z,20.72
2023-05-03T04:43:59.496Z,20.71
2023-05-03T04:46:28.165Z,20.72
2023-05-03T04:48:57.610Z,20.72
2023-05-03T04:51:28.289Z,20.72
2023-05-03T04:53:57.368Z,20.72
2023-05-03T04:56:26.749Z,20.73
2023-05-03T04:59:05.456Z,20.72
2023-05-03T05:01:34.930Z,20.74
2023-05-03T05:04:05.187Z,20.84
2023-05-03T05:06:40.193Z,20.99
2023-05-03T05:09:22.168Z,21.12
2023-05-03T05:11:53.947Z,21.23
2023-05-03T05:14:28.159Z,21.31
2023-05-03T05:16:56.987Z,21.42
2023-05-03T05:19:25.471Z,21.57
2023-05-03T05:21:54.174Z,21.77
2023-05-03T05:24:25.043Z,21.94
2023-05-03T05:26:53.699Z,22.07
2023-05-03T05:29:22.455Z,22.20
2023-05-03T05:31:53.090Z,22.27
2023-05-03T05:34:22.297Z,22.33
2023-05-03T05:36:52.182Z,22.42
2023-05-03T05:39:23.364Z,22.53
2023-05-03T05:41:52.722Z,22.67
2023-05-03T05:44:21.192Z,22.75
2023-05-03T05:46:52.433Z,22.87
2023-05-03T05:49:21.938Z,23.01
2023-05-03T05:51:50.380Z,23.09
2023-05-03T05:54:18.931Z,23.13
2023-05-03T05:56:47.482Z,23.16
2023-05-03T05:59:16.375Z,23.19
2023-05-03T06:01:46.340Z,23.21
2023-05-03T06:04:18.842Z,23.24
2023-05-03T06:06:48.019Z,23.24
2023-05-03T06:09:24.204Z,23.22
2023-05-03T06:11:56.346Z,23.20
2023-05-03T06:14:27.347Z,23.20
2023-05-03T06:16:56.096Z,23.15
2023-05-03T06:19:25.888Z,23.09
2023-05-03T06:21:54.320Z,23.05
2023-05-03T06:24:23.470Z,23.02
2023-05-03T06:26:55.705Z,22.96
2023-05-03T06:29:24.335Z,22.91
2023-05-03T06:31:52.900Z,22.88
2023-05-03T06:34:22.638Z,22.82
2023-05-03T06:36:55.820Z,22.80
2023-05-03T06:39:24.958Z,22.77
2023-05-03T06:41:53.408Z,22.73
2023-05-03T06:44:21.974Z,22.71
2023-05-03T06:46:50.627Z,22.66
2023-05-03T06:49:19.244Z,22.62
2023-05-03T06:51:47.920Z,22.52
2023-05-03T06:54:17.785Z,22.44
2023-05-03T06:56:46.229Z,22.40
2023-05-03T06:59:14.656Z,22.37
2023-05-03T07:01:43.158Z,22.30
2023-05-03T07:04:11.798Z,22.30
2023-05-03T07:06:52.480Z,22.25
2023-05-03T07:09:32.080Z,22.26
2023-05-03T07:12:04.452Z,22.25
2023-05-03T07:14:32.891Z,22.22
2023-05-03T07:17:01.310Z,22.22
2023-05-03T07:19:29.992Z,22.20
2023-05-03T07:21:58.467Z,22.16
2023-05-03T07:24:28.297Z,22.13
2023-05-03T07:26:56.853Z,22.07
2023-05-03T07:29:26.179Z,22.03
2023-05-03T07:31:54.641Z,22.00
2023-05-03T07:34:23.120Z,21.97
2023-05-03T07:36:51.934Z,21.94
2023-05-03T07:39:20.474Z,21.91
2023-05-03T07:41:50.319Z,21.90
2023-05-03T07:44:18.805Z,21.88
2023-05-03T07:46:47.293Z,21.85
2023-05-03T07:49:16.092Z,21.82
2023-05-03T07:51:44.595Z,21.80
2023-05-03T07:54:13.101Z,21.81
2023-05-03T07:56:41.540Z,21.79
2023-05-03T07:59:11.351Z,21.79
2023-05-03T08:01:40.398Z,21.78
2023-05-03T08:04:09.167Z,21.78
2023-05-03T08:06:38.523Z,21.77
2023-05-03T08:09:07.095Z,21.78
2023-05-03T08:11:35.639Z,21.77
2023-05-03T08:14:04.148Z,21.75
2023-05-03T08:16:33.887Z,21.73
2023-05-03T08:19:02.304Z,21.75
2023-05-03T08:21:31.052Z,21.73
2023-05-03T08:23:59.539Z,21.69
2023-05-03T08:26:28.562Z,21.61
2023-05-03T08:28:57.230Z,21.55
2023-05-03T08:31:25.864Z,21.50
2023-05-03T08:33:55.854Z,21.46
2023-05-03T08:36:24.327Z,21.43
2023-05-03T08:38:52.855Z,21.41
2023-05-03T08:41:24.781Z,21.39
2023-05-03T08:43:55.014Z,21.35
2023-05-03T08:46:25.682Z,21.34
2023-05-03T08:48:56.136Z,21.33
2023-05-03T08:51:25.607Z,21.31
2023-05-03T08:53:54.081Z,21.31
2023-05-03T08:56:29.931Z,21.32
2023-05-03T08:59:04.785Z,21.32
2023-05-03T09:01:33.366Z,21.33
2023-05-03T09:04:04.176Z,21.33
2023-05-03T09:06:34.029Z,21.34
2023-05-03T09:09:05.288Z,21.37
2023-05-03T09:11:35.013Z,21.38
2023-05-03T09:14:10.988Z,21.40
2023-05-03T09:16:41.087Z,21.42
2023-05-03T09:19:12.566Z,21.45
2023-05-03T09:21:42.712Z,21.47
2023-05-03T09:24:15.834Z,21.49
2023-05-03T09:26:45.580Z,21.48
2023-05-03T09:29:28.965Z,21.50
2023-05-03T09:32:02.514Z,21.50
2023-05-03T09:34:32.647Z,21.51
2023-05-03T09:37:01.324Z,21.52
2023-05-03T09:39:29.893Z,21.51
2023-05-03T09:41:58.705Z,21.49
2023-05-03T09:44:42.466Z,21.46
2023-05-03T09:47:12.465Z,21.17
2023-05-03T09:49:42.502Z,20.91
2023-05-03T09:52:11.361Z,20.28
2023-05-03T09:54:40.736Z,20.32
2023-05-03T09:57:10.064Z,20.42
2023-05-03T09:59:39.638Z,20.55
2023-05-03T10:02:08.922Z,20.69
2023-05-03T10:04:44.607Z,20.80
2023-05-03T10:07:17.459Z,20.91
2023-05-03T10:09:48.306Z,21.03
2023-05-03T10:12:17.550Z,21.11
2023-05-03T10:14:47.942Z,21.19
2023-05-03T10:17:20.006Z,21.25
2023-05-03T10:19:53.390Z,21.29
2023-05-03T10:22:21.933Z,21.34
2023-05-03T10:25:09.890Z,21.35
2023-05-03T10:27:42.758Z,21.36
2023-05-03T10:30:29.224Z,21.41
2023-05-03T10:32:58.099Z,21.46
2023-05-03T10:35:31.272Z,21.50
2023-05-03T10:37:59.702Z,21.54
2023-05-03T10:40:42.988Z,21.56
2023-05-03T10:43:41.282Z,21.58
2023-05-03T10:46:30.456Z,21.61
2023-05-03T10:49:21.903Z,21.64
2023-05-03T10:51:53.105Z,21.65
2023-05-03T10:54:21.535Z,21.65
2023-05-03T10:56:51.476Z,21.64
2023-05-03T10:59:20.403Z,21.64
2023-05-03T11:01:52.115Z,21.65
2023-05-03T11:04:31.858Z,21.62
2023-05-03T11:07:02.493Z,21.62
2023-05-03T11:09:34.225Z,21.63
2023-05-03T11:12:07.036Z,21.64
2023-05-03T11:14:35.633Z,21.62
2023-05-03T11:17:04.145Z,21.64
2023-05-03T11:19:33.638Z,21.64
2023-05-03T11:22:03.707Z,21.65
2023-05-03T11:24:32.199Z,21.65
2023-05-03T11:27:08.587Z,21.65
2023-05-03T11:29:37.894Z,21.66
2023-05-03T11:32:09.507Z,21.67
2023-05-03T11:34:39.969Z,21.67
2023-05-03T11:37:11.043Z,21.64
2023-05-03T11:39:39.482Z,21.59
2023-05-03T11:42:08.298Z,21.59
2023-05-03T11:44:37.624Z,21.58
2023-05-03T11:47:06.800Z,21.58
2023-05-03T11:49:35.699Z,21.60
2023-05-03T11:52:04.434Z,21.61
2023-05-03T11:54:34.205Z,21.64
2023-05-03T11:57:13.798Z,21.64
2023-05-03T11:59:42.515Z,21.65
2023-05-03T12:02:14.059Z,21.64
2023-05-03T12:04:44.683Z,21.64
2023-05-03T12:07:17.850Z,21.64
2023-05-03T12:10:03.287Z,21.65
2023-05-03T12:12:42.230Z,21.66
2023-05-03T12:15:16.401Z,21.59
2023-05-03T12:17:48.886Z,21.56
2023-05-03T12:22:53.017Z,21.53
2023-05-03T12:25:28.348Z,21.50
2023-05-03T12:28:18.634Z,21.49
2023-05-03T12:30:52.709Z,21.47
2023-05-03T12:33:22.781Z,21.49
2023-05-03T12:35:54.287Z,21.51
2023-05-03T12:38:25.287Z,21.53
2023-05-03T12:40:55.576Z,21.54
2023-05-03T12:43:24.134Z,21.55
2023-05-03T12:46:07.687Z,21.56
2023-05-03T12:48:42.076Z,21.56
2023-05-03T12:53:47.324Z,21.56
2023-05-03T12:56:17.841Z,21.55
2023-05-03T13:02:17.731Z,21.55
2023-05-03T13:04:44.626Z,21.55
2023-05-03T13:07:00.461Z,21.55
2023-05-03T13:10:12.573Z,21.54
2023-05-03T13:12:21.785Z,21.54
2023-05-03T13:14:51.197Z,21.56
2023-05-03T13:17:22.658Z,21.56
2023-05-03T13:19:52.398Z,21.56
2023-05-03T13:22:20.893Z,21.56
2023-05-03T13:24:49.918Z,21.56
2023-05-03T13:27:19.647Z,21.56
2023-05-03T13:29:49.304Z,21.57
2023-05-03T13:32:18.624Z,21.57
2023-05-03T13:34:47.238Z,21.57
2023-05-03T13:37:18.531Z,21.56
2023-05-03T13:39:47.311Z,21.54
2023-05-03T13:42:15.933Z,21.53
2023-05-03T13:44:47.736Z,21.53
2023-05-03T13:47:16.379Z,21.52
2023-05-03T13:49:44.944Z,21.53
2023-05-03T13:52:13.444Z,21.53
2023-05-03T13:54:42.918Z,21.52
2023-05-03T13:57:11.414Z,21.54
2023-05-03T13:59:39.998Z,21.53
2023-05-03T14:02:09.806Z,21.51
2023-05-03T14:04:38.367Z,21.45
2023-05-03T14:07:07.008Z,21.44
2023-05-03T14:09:39.299Z,21.41
2023-05-03T14:12:08.181Z,21.38
2023-05-03T14:14:37.067Z,21.39
2023-05-03T14:17:06.589Z,21.41
2023-05-03T14:19:37.763Z,21.42
2023-05-03T14:22:06.672Z,21.43
2023-05-03T14:24:35.238Z,21.45
2023-05-03T14:27:03.804Z,21.47
2023-05-03T14:29:32.307Z,21.46
2023-05-03T14:32:01.108Z,21.48
2023-05-03T14:34:29.821Z,21.48
2023-05-03T14:36:59.888Z,21.49
2023-05-03T14:39:28.385Z,21.49
2023-05-03T14:41:56.934Z,21.50
2023-05-03T14:44:25.484Z,21.50
2023-05-03T14:46:54.053Z,21.50
2023-05-03T14:49:22.583Z,21.49
2023-05-03T14:51:51.021Z,21.47
2023-05-03T14:54:23.035Z,21.42
2023-05-03T14:56:51.895Z,21.20
2023-05-03T14:59:20.400Z,21.10
2023-05-03T15:01:48.933Z,20.95
2023-05-03T15:04:17.426Z,20.98
2023-05-03T15:06:45.888Z,21.06
2023-05-03T15:09:14.358Z,21.08
2023-05-03T15:11:45.483Z,21.14
2023-05-03T15:14:13.970Z,21.19
2023-05-03T15:16:42.524Z,21.21
2023-05-03T15:19:11.034Z,21.25
2023-05-03T15:21:46.374Z,21.27
2023-05-03T15:24:15.104Z,21.22
2023-05-03T15:26:45.173Z,21.25
2023-05-03T15:29:14.919Z,21.28
2023-05-03T15:31:43.851Z,21.30
2023-05-03T15:34:12.600Z,21.31
2023-05-03T15:36:41.618Z,21.33
2023-05-03T15:39:10.205Z,21.34
2023-05-03T15:41:38.677Z,21.33
2023-05-03T15:44:09.767Z,21.22
2023-05-03T15:46:40.697Z,21.05
2023-05-03T15:49:11.795Z,21.03
2023-05-03T15:51:40.349Z,21.07
2023-05-03T15:54:08.862Z,20.97
2023-05-03T15:56:38.301Z,20.81
2023-05-03T15:59:08.398Z,20.57
2023-05-03T16:01:37.237Z,20.59
2023-05-03T16:04:07.617Z,20.63
2023-05-03T16:06:36.124Z,20.70
2023-05-03T16:09:06.387Z,20.74
2023-05-03T16:11:35.659Z,20.74
2023-05-03T16:14:04.896Z,20.57
2023-05-03T16:16:34.798Z,20.57
2023-05-03T16:19:03.549Z,20.56
2023-05-03T16:21:32.416Z,20.55
2023-05-03T16:24:01.320Z,20.50
2023-05-03T16:26:31.596Z,20.57
2023-05-03T16:29:00.036Z,20.67
2023-05-03T16:31:30.006Z,20.77
2023-05-03T16:34:00.376Z,20.84
2023-05-03T16:36:28.971Z,20.91
2023-05-03T16:38:57.450Z,20.96
2023-05-03T16:41:26.049Z,21.01
2023-05-03T16:43:54.442Z,21.03
2023-05-03T16:46:22.870Z,21.05
2023-05-03T16:48:51.823Z,21.07
2023-05-03T16:51:22.805Z,21.07
2023-05-03T16:53:52.210Z,21.07
2023-05-03T16:56:21.795Z,21.09
2023-05-03T16:58:50.871Z,21.08
2023-05-03T17:01:19.937Z,21.08
2023-05-03T17:03:48.552Z,21.08
2023-05-03T17:06:17.518Z,21.10
2023-05-03T17:08:47.736Z,21.08
2023-05-03T17:11:16.375Z,21.10
2023-05-03T17:13:45.088Z,21.10
2023-05-03T17:16:15.495Z,21.11
2023-05-03T17:18:44.466Z,21.12
2023-05-03T17:21:12.964Z,21.16
2023-05-03T17:23:42.022Z,21.18
2023-05-03T17:26:13.156Z,21.21
2023-05-03T17:28:42.070Z,21.24
2023-05-03T17:31:10.522Z,21.27
2023-05-03T17:33:39.086Z,21.29
2023-05-03T17:36:08.073Z,21.33
2023-05-03T17:38:36.760Z,21.35
2023-05-03T17:41:07.298Z,21.35
2023-05-03T17:43:37.326Z,21.36
2023-05-03T17:46:10.907Z,21.37
2023-05-03T17:48:40.559Z,21.39
2023-05-03T17:51:09.556Z,21.39
2023-05-03T17:53:38.015Z,21.41
2023-05-03T17:56:13.388Z,21.43
2023-05-03T17:58:43.522Z,21.43
2023-05-03T18:01:13.299Z,21.46
2023-05-03T18:03:42.585Z,21.46
2023-05-03T18:06:13.555Z,21.47
2023-05-03T18:08:42.388Z,21.48
2023-05-03T18:11:10.846Z,21.48
2023-05-03T18:13:40.119Z,21.49
2023-05-03T18:16:10.569Z,21.50
2023-05-03T18:18:39.278Z,21.48
2023-05-03T18:21:08.104Z,21.46
2023-05-03T18:23:36.533Z,21.45
2023-05-03T18:26:05.365Z,21.43
2023-05-03T18:28:34.866Z,21.39
2023-05-03T18:31:03.845Z,21.36
2023-05-03T18:33:34.824Z,21.34
2023-05-03T18:36:05.916Z,21.32
2023-05-03T18:38:34.385Z,21.32
2023-05-03T18:41:02.814Z,21.29
2023-05-03T18:43:32.114Z,21.29
2023-05-03T18:46:02.675Z,21.27
2023-05-03T18:48:31.157Z,21.26
2023-05-03T18:51:02.466Z,21.26
2023-05-03T18:53:31.890Z,21.25
2023-05-03T18:56:00.594Z,21.24
2023-05-03T18:58:29.220Z,21.24
2023-05-03T19:00:59.921Z,21.23
2023-05-03T19:03:29.428Z,21.22
2023-05-03T19:06:03.782Z,21.21
2023-05-03T19:08:32.413Z,21.21
2023-05-03T19:11:07.661Z,21.20
2023-05-03T19:13:36.517Z,21.20
2023-05-03T19:16:05.275Z,21.20
2023-05-03T19:18:33.748Z,21.18
2023-05-03T19:21:03.692Z,21.18
2023-05-03T19:23:32.355Z,21.19
2023-05-03T19:26:01.005Z,21.17
2023-05-03T19:28:30.358Z,21.18
2023-05-03T19:30:59.088Z,21.19
2023-05-03T19:33:28.085Z,21.23
2023-05-03T19:35:57.436Z,21.25
2023-05-03T19:38:27.423Z,21.27
2023-05-03T19:40:57.215Z,21.29
2023-05-03T19:43:25.940Z,21.31
2023-05-03T19:45:54.410Z,21.33
2023-05-03T19:48:22.901Z,21.34
2023-05-03T19:50:51.355Z,21.35
2023-05-03T19:53:19.757Z,21.38
2023-05-03T19:55:58.163Z,21.40
2023-05-03T19:58:27.456Z,21.41
2023-05-03T20:00:59.427Z,21.42
2023-05-03T20:03:28.457Z,21.44
2023-05-03T20:05:57.160Z,21.43
2023-05-03T20:08:26.218Z,21.45
2023-05-03T20:10:56.480Z,21.46
2023-05-03T20:13:27.170Z,21.47
2023-05-03T20:15:56.238Z,21.46
2023-05-03T20:18:24.736Z,21.48
2023-05-03T20:20:53.146Z,21.47
2023-05-03T20:23:22.201Z,21.45
2023-05-03T20:25:50.671Z,21.43
2023-05-03T20:28:20.401Z,21.39
2023-05-03T20:30:48.894Z,21.36
2023-05-03T20:33:17.391Z,21.32
2023-05-03T20:35:45.882Z,21.30
2023-05-03T20:38:14.406Z,21.27
2023-05-03T20:40:42.817Z,21.25
2023-05-03T20:43:11.228Z,21.23
2023-05-03T20:45:41.193Z,21.21
2023-05-03T20:48:09.716Z,21.19
2023-05-03T20:50:38.292Z,21.18
2023-05-03T20:53:06.778Z,21.15
2023-05-03T20:55:35.262Z,21.15
2023-05-03T20:58:03.823Z,21.12
2023-05-03T21:00:32.290Z,21.11
2023-05-03T21:03:02.212Z,21.09
2023-05-03T21:05:30.764Z,21.09
2023-05-03T21:07:59.162Z,21.07
2023-05-03T21:10:27.649Z,21.06
2023-05-03T21:12:56.225Z,21.04
2023-05-03T21:15:24.670Z,21.04
2023-05-03T21:17:53.157Z,21.03
2023-05-03T21:20:23.419Z,21.01
2023-05-03T21:22:51.872Z,21.01
2023-05-03T21:25:20.294Z,21.00
2023-05-03T21:27:48.754Z,20.99
2023-05-03T21:30:19.157Z,20.99
2023-05-03T21:32:49.808Z,20.97
2023-05-03T21:35:18.863Z,20.96
2023-05-03T21:37:49.838Z,20.95
2023-05-03T21:40:18.547Z,20.96
2023-05-03T21:42:47.186Z,20.95
2023-05-03T21:45:15.585Z,20.94
2023-05-03T21:47:44.077Z,20.94
2023-05-03T21:50:13.809Z,20.94
2023-05-03T21:52:42.922Z,20.92
2023-05-03T21:55:12.991Z,20.93
2023-05-03T21:57:41.434Z,20.91
2023-05-03T22:00:14.685Z,20.92
2023-05-03T22:02:43.167Z,20.91
2023-05-03T22:05:11.673Z,20.91
2023-05-03T22:07:40.147Z,20.90
2023-05-03T22:10:09.840Z,20.89
2023-05-03T22:12:39.694Z,20.89
2023-05-03T22:15:09.200Z,20.89
2023-05-03T22:17:37.985Z,20.89
2023-05-03T22:20:08.158Z,20.88
2023-05-03T22:22:37.065Z,20.86
2023-05-03T22:25:06.691Z,20.87
2023-05-03T22:27:35.251Z,20.86
2023-05-03T22:30:06.006Z,20.87
2023-05-03T22:32:34.593Z,20.86
2023-05-03T22:35:03.535Z,20.86
2023-05-03T22:37:32.135Z,20.85
2023-05-03T22:40:00.685Z,20.86
2023-05-03T22:42:29.157Z,20.85
2023-05-03T22:44:57.773Z,20.84
2023-05-03T22:47:27.959Z,20.84
2023-05-03T22:49:56.752Z,20.85
2023-05-03T22:52:25.225Z,20.83
2023-05-03T22:54:56.852Z,20.83
2023-05-03T22:57:25.387Z,20.83
2023-05-03T22:59:53.856Z,20.83
2023-05-03T23:02:22.351Z,20.82
2023-05-03T23:04:52.279Z,20.83
2023-05-03T23:07:20.896Z,20.82
2023-05-03T23:09:49.436Z,20.81
2023-05-03T23:12:17.885Z,20.81
2023-05-03T23:14:46.259Z,20.80
2023-05-03T23:17:14.933Z,20.80
2023-05-03T23:19:43.413Z,20.81
2023-05-03T23:22:13.230Z,20.80
2023-05-03T23:24:41.570Z,20.80
2023-05-03T23:27:12.405Z,20.79
2023-05-03T23:29:41.411Z,20.79
2023-05-03T23:32:10.245Z,20.80
2023-05-03T23:34:39.175Z,20.79
2023-05-03T23:37:07.580Z,20.79
2023-05-03T23:39:37.566Z,20.79
2023-05-03T23:42:06.072Z,20.78
2023-05-03T23:44:50.384Z,20.79
2023-05-03T23:47:22.715Z,20.77
2023-05-03T23:49:51.333Z,20.78
2023-05-03T23:52:20.501Z,20.77
2023-05-03T23:54:50.339Z,20.77
2023-05-03T23:57:18.765Z,20.77
2023-05-03T23:59:47.161Z,20.77
